Time;durP1;ratioP1;P1;durP2;ratioP2;P2;SDS_P1;SDS_P2;PMS_P1;PMS_P2;Temp;Humidity;BMP_temperature;BMP_pressure;BME280_temperature;BME280_humidity;BME280_pressure;Samples;Min_cycle;Max_cycle;Signal;HPM_P1;HPM_P2
2021/06/20 00:00:31;;;;;;;22.08;16.50;;;20.00;93.50;;;;;;5036512;28;20025;-85
2021/06/20 00:02:57;;;;;;;23.95;15.52;;;20.00;93.40;;;;;;5054742;28;20497;-86
2021/06/20 00:05:49;;;;;;;26.50;15.85;;;20.00;93.30;;;;;;5019426;28;20029;-85
2021/06/20 00:08:15;;;;;;;19.55;16.48;;;20.00;93.40;;;;;;5036769;28;20434;-88
2021/06/20 00:10:41;;;;;;;23.55;17.40;;;20.00;93.60;;;;;;5037045;28;20067;-88
2021/06/20 00:13:07;;;;;;;24.35;17.75;;;19.90;93.50;;;;;;5020434;28;20432;-86
2021/06/20 00:15:35;;;;;;;26.63;17.60;;;19.90;93.60;;;;;;5036696;28;20029;-88
2021/06/20 00:18:02;;;;;;;21.52;17.50;;;19.90;93.60;;;;;;5039056;28;20071;-87
2021/06/20 00:20:30;;;;;;;21.55;15.65;;;20.00;93.70;;;;;;5026214;28;20034;-90
2021/06/20 00:22:56;;;;;;;20.73;15.57;;;20.00;93.70;;;;;;5016886;28;20040;-88
2021/06/20 00:25:24;;;;;;;18.50;14.15;;;20.00;93.70;;;;;;5016825;28;20026;-87
2021/06/20 00:27:50;;;;;;;18.88;14.55;;;20.00;93.60;;;;;;5019329;28;20024;-90
2021/06/20 00:30:19;;;;;;;21.30;15.73;;;20.10;93.60;;;;;;5000840;28;20417;-88
2021/06/20 00:32:48;;;;;;;23.00;16.67;;;20.10;93.70;;;;;;5000966;28;20044;-85
2021/06/20 00:35:15;;;;;;;19.63;15.85;;;20.10;93.70;;;;;;5016523;28;20478;-89
2021/06/20 00:37:41;;;;;;;20.73;16.23;;;20.10;93.60;;;;;;5000272;28;20029;-88
2021/06/20 00:40:08;;;;;;;19.02;15.10;;;20.20;93.70;;;;;;5000875;28;20382;-87
2021/06/20 00:42:34;;;;;;;22.25;16.35;;;20.20;93.70;;;;;;5017578;28;20030;-89
2021/06/20 00:44:59;;;;;;;22.42;15.40;;;20.20;93.70;;;;;;5017028;28;20052;-87
2021/06/20 00:47:25;;;;;;;18.10;14.73;;;20.20;93.70;;;;;;5018642;28;20028;-87
2021/06/20 00:49:51;;;;;;;19.88;14.88;;;20.20;93.70;;;;;;5000180;28;20029;-83
2021/06/20 00:52:18;;;;;;;20.77;15.52;;;20.20;93.70;;;;;;5034207;28;20030;-87
2021/06/20 00:54:48;;;;;;;18.92;14.88;;;20.20;93.70;;;;;;5016134;28;20029;-88
2021/06/20 00:57:18;;;;;;;18.20;14.43;;;20.20;93.70;;;;;;5026336;28;20025;-88
2021/06/20 00:59:45;;;;;;;16.35;14.18;;;20.20;93.60;;;;;;5000400;28;20025;-89
2021/06/20 01:02:13;;;;;;;17.52;13.25;;;20.20;93.60;;;;;;5000479;28;20034;-85
2021/06/20 01:04:43;;;;;;;18.75;13.45;;;20.30;93.70;;;;;;5015991;28;20030;-84
2021/06/20 01:07:12;;;;;;;15.38;12.70;;;20.30;93.60;;;;;;5016314;28;20031;-88
2021/06/20 01:09:38;;;;;;;18.95;12.48;;;20.20;93.60;;;;;;5016775;28;20060;-90
2021/06/20 01:12:04;;;;;;;16.58;12.88;;;20.30;93.70;;;;;;5002123;28;20030;-89
2021/06/20 01:14:30;;;;;;;18.70;12.40;;;20.30;93.70;;;;;;5027932;28;20024;-90
2021/06/20 01:16:56;;;;;;;20.30;13.55;;;20.20;93.70;;;;;;5036559;28;20031;-84
2021/06/20 01:19:22;;;;;;;20.92;13.30;;;20.20;93.80;;;;;;5000179;28;20033;-92
2021/06/20 01:21:49;;;;;;;19.55;13.30;;;20.20;93.80;;;;;;5007788;28;20545;-86
2021/06/20 01:24:14;;;;;;;24.55;14.20;;;20.20;93.90;;;;;;5016791;28;20381;-89
2021/06/20 01:26:40;;;;;;;22.50;14.27;;;20.20;93.90;;;;;;5032010;28;20025;-88
2021/06/20 01:29:09;;;;;;;23.65;14.82;;;20.20;94.00;;;;;;5033556;28;20022;-90
2021/06/20 01:31:35;;;;;;;22.08;14.20;;;20.20;94.00;;;;;;5022502;28;20025;-88
2021/06/20 01:34:03;;;;;;;22.33;14.35;;;20.20;94.10;;;;;;5054177;28;20045;-82
2021/06/20 01:36:32;;;;;;;21.35;13.88;;;20.20;94.10;;;;;;5019665;28;20047;-90
2021/06/20 01:38:58;;;;;;;24.83;14.70;;;20.20;94.10;;;;;;5037085;28;20036;-87
2021/06/20 01:41:24;;;;;;;21.33;13.85;;;20.20;94.20;;;;;;5024198;28;20044;-89
2021/06/20 01:43:50;;;;;;;21.15;14.05;;;20.20;94.20;;;;;;5034517;28;20025;-85
2021/06/20 01:46:16;;;;;;;18.77;13.68;;;20.20;94.20;;;;;;5020235;28;20048;-87
2021/06/20 01:48:41;;;;;;;20.67;15.07;;;20.20;94.40;;;;;;5006462;28;20029;-87
2021/06/20 01:51:09;;;;;;;19.73;12.75;;;20.20;94.30;;;;;;5016624;28;20029;-91
2021/06/20 01:53:35;;;;;;;19.65;13.13;;;20.20;94.30;;;;;;5001020;28;20397;-89
2021/06/20 01:56:01;;;;;;;20.58;13.57;;;20.20;94.40;;;;;;5016834;28;20461;-91
2021/06/20 01:58:27;;;;;;;16.88;12.30;;;20.20;94.40;;;;;;5006168;28;20120;-88
2021/06/20 02:00:54;;;;;;;19.05;12.25;;;20.30;94.40;;;;;;5019586;28;20039;-91
2021/06/20 02:03:23;;;;;;;22.10;15.98;;;20.30;94.40;;;;;;5019497;28;20093;-84
2021/06/20 02:05:49;;;;;;;20.52;14.98;;;20.30;94.40;;;;;;5035366;28;20441;-91
2021/06/20 02:08:18;;;;;;;24.83;16.58;;;20.30;94.40;;;;;;5035145;28;20486;-90
2021/06/20 02:10:48;;;;;;;25.85;17.90;;;20.30;94.40;;;;;;5063187;28;20009;-87
2021/06/20 02:13:14;;;;;;;27.90;19.42;;;20.30;94.50;;;;;;5072081;28;20032;-88
2021/06/20 02:15:40;;;;;;;25.40;19.42;;;20.30;94.50;;;;;;5026591;28;20033;-89
2021/06/20 02:18:06;;;;;;;24.20;18.42;;;20.30;94.60;;;;;;4993050;28;20038;-89
2021/06/20 02:20:32;;;;;;;30.35;19.55;;;20.30;94.60;;;;;;5017364;28;20029;-88
2021/06/20 02:22:58;;;;;;;26.83;19.10;;;20.40;94.60;;;;;;5035129;28;20041;-90
2021/06/20 02:25:24;;;;;;;27.48;19.58;;;20.40;94.60;;;;;;5019051;28;20120;-85
2021/06/20 02:27:52;;;;;;;25.15;18.13;;;20.40;94.50;;;;;;5035594;28;20029;-89
2021/06/20 02:30:18;;;;;;;22.27;16.08;;;20.40;94.50;;;;;;5038337;28;20018;-89
2021/06/20 02:32:44;;;;;;;20.90;15.85;;;20.40;94.50;;;;;;5022296;28;20034;-90
2021/06/20 02:35:12;;;;;;;18.65;13.32;;;20.30;94.50;;;;;;5033391;28;20042;-90
2021/06/20 02:37:41;;;;;;;20.45;15.05;;;20.40;94.50;;;;;;5025411;28;20085;-89
2021/06/20 02:40:08;;;;;;;24.00;15.45;;;20.40;94.40;;;;;;5032143;28;20041;-90
2021/06/20 02:42:35;;;;;;;19.20;16.67;;;20.50;94.30;;;;;;5017344;28;20034;-86
2021/06/20 02:45:02;;;;;;;18.65;14.07;;;20.50;94.20;;;;;;5032945;28;20108;-90
2021/06/20 02:47:28;;;;;;;22.35;15.90;;;20.60;94.00;;;;;;5051937;28;20025;-88
2021/06/20 02:49:54;;;;;;;20.48;16.80;;;20.60;93.80;;;;;;5015458;28;20402;-90
2021/06/20 02:52:20;;;;;;;18.80;16.60;;;20.60;93.60;;;;;;4999318;28;20030;-88
2021/06/20 02:54:52;;;;;;;21.98;18.05;;;20.60;93.50;;;;;;5015601;28;20458;-91
2021/06/20 02:57:21;;;;;;;20.17;16.95;;;20.60;93.30;;;;;;5016072;28;20067;-90
2021/06/20 02:59:47;;;;;;;18.23;16.00;;;20.50;93.30;;;;;;5015233;28;20026;-90
2021/06/20 03:02:12;;;;;;;19.35;16.85;;;20.50;93.20;;;;;;5001763;28;20042;-88
2021/06/20 03:04:38;;;;;;;19.83;16.05;;;20.40;93.10;;;;;;5009060;28;20028;-88
2021/06/20 03:07:04;;;;;;;21.52;17.92;;;20.40;93.10;;;;;;5025491;28;20037;-88
2021/06/20 03:09:30;;;;;;;18.83;14.73;;;20.30;93.10;;;;;;5041891;28;20021;-90
2021/06/20 03:11:56;;;;;;;16.90;15.05;;;20.30;93.10;;;;;;5044534;28;20115;-90
2021/06/20 03:14:21;;;;;;;19.45;16.63;;;20.30;93.10;;;;;;5045972;28;20039;-90
2021/06/20 03:16:48;;;;;;;21.63;16.02;;;20.40;93.00;;;;;;5025541;28;20030;-90
2021/06/20 03:19:14;;;;;;;22.40;16.25;;;20.50;92.90;;;;;;5007531;28;20053;-90
2021/06/20 03:21:41;;;;;;;21.45;18.42;;;20.50;92.80;;;;;;5051961;28;20108;-88
2021/06/20 03:24:07;;;;;;;24.15;18.88;;;20.50;92.70;;;;;;5021397;28;20044;-89
2021/06/20 03:26:33;;;;;;;19.98;16.30;;;20.50;92.60;;;;;;5003801;28;20489;-89
2021/06/20 03:28:59;;;;;;;25.50;18.00;;;20.50;92.50;;;;;;5020366;28;20045;-88
2021/06/20 03:31:25;;;;;;;27.05;20.83;;;20.50;92.50;;;;;;5012777;28;20042;-88
2021/06/20 03:33:52;;;;;;;29.50;22.00;;;20.40;92.40;;;;;;5021160;28;20026;-89
2021/06/20 03:36:18;;;;;;;29.15;22.40;;;20.50;92.30;;;;;;5021127;28;20030;-89
2021/06/20 03:38:44;;;;;;;30.15;22.90;;;20.50;92.20;;;;;;5017238;28;20064;-87
2021/06/20 03:41:11;;;;;;;29.02;22.70;;;20.50;92.10;;;;;;5034382;28;20119;-89
2021/06/20 03:43:37;;;;;;;29.65;23.92;;;20.50;92.00;;;;;;5017885;28;20493;-88
2021/06/20 03:46:03;;;;;;;31.63;22.85;;;20.50;91.90;;;;;;5016480;28;20040;-85
2021/06/20 03:48:29;;;;;;;35.28;25.98;;;20.50;91.90;;;;;;5017234;28;20029;-89
2021/06/20 03:50:55;;;;;;;32.20;24.35;;;20.50;91.80;;;;;;4999953;28;20032;-87
2021/06/20 03:53:21;;;;;;;30.23;23.33;;;20.40;91.70;;;;;;5027143;28;20037;-87
2021/06/20 03:55:47;;;;;;;31.40;23.23;;;20.30;91.60;;;;;;5037476;28;20468;-87
2021/06/20 03:58:12;;;;;;;30.10;23.45;;;20.30;91.60;;;;;;5036866;28;20025;-86
2021/06/20 04:00:38;;;;;;;32.83;23.25;;;20.30;91.50;;;;;;5036916;28;20389;-86
2021/06/20 04:03:05;;;;;;;31.88;23.13;;;20.30;91.40;;;;;;5035354;28;20028;-88
2021/06/20 04:05:31;;;;;;;28.13;21.77;;;20.30;91.30;;;;;;5054296;28;20029;-89
2021/06/20 04:07:57;;;;;;;27.10;20.50;;;20.20;91.20;;;;;;5002963;28;20032;-86
2021/06/20 04:10:23;;;;;;;29.63;21.98;;;20.20;91.10;;;;;;5020078;28;20035;-86
2021/06/20 04:12:48;;;;;;;27.92;21.90;;;20.10;91.10;;;;;;5054072;28;20029;-88
2021/06/20 04:15:14;;;;;;;27.40;21.10;;;20.20;91.10;;;;;;5036697;28;20097;-86
2021/06/20 04:17:40;;;;;;;24.67;18.80;;;20.40;90.90;;;;;;5003810;28;20389;-85
2021/06/20 04:20:07;;;;;;;29.05;22.10;;;20.60;90.60;;;;;;5036261;28;20495;-85
2021/06/20 04:22:35;;;;;;;26.02;20.45;;;20.70;90.30;;;;;;5020083;28;20041;-86
2021/06/20 04:25:01;;;;;;;26.60;20.27;;;20.90;90.00;;;;;;5053641;28;20103;-85
2021/06/20 04:27:26;;;;;;;26.52;20.90;;;21.20;89.20;;;;;;5030711;28;20572;-85
2021/06/20 04:29:52;;;;;;;26.80;20.80;;;21.30;88.20;;;;;;4999197;28;20036;-86
2021/06/20 04:32:18;;;;;;;26.80;21.38;;;21.20;87.80;;;;;;5000303;28;20029;-86
2021/06/20 04:34:43;;;;;;;22.35;18.27;;;21.10;87.90;;;;;;5016108;28;20057;-85
2021/06/20 04:37:09;;;;;;;20.77;16.83;;;21.10;88.30;;;;;;5015725;28;20108;-84
2021/06/20 04:39:35;;;;;;;21.13;17.75;;;21.00;88.50;;;;;;5016450;28;20458;-85
2021/06/20 04:42:01;;;;;;;26.92;21.20;;;21.10;88.50;;;;;;5015787;28;20113;-87
2021/06/20 04:44:45;;;;;;;23.10;19.20;;;21.10;88.50;;;;;;5000402;28;20032;-84
2021/06/20 04:47:13;;;;;;;25.27;19.98;;;21.00;88.40;;;;;;5015808;28;20021;-85
2021/06/20 04:49:40;;;;;;;23.42;18.95;;;21.00;88.40;;;;;;5015860;28;20083;-85
2021/06/20 04:52:07;;;;;;;23.70;19.50;;;21.10;88.30;;;;;;5015828;28;20033;-85
2021/06/20 04:54:35;;;;;;;23.77;21.00;;;21.20;88.10;;;;;;5009661;28;20428;-84
2021/06/20 04:57:02;;;;;;;23.38;18.25;;;21.20;87.80;;;;;;4999796;28;20040;-85
2021/06/20 04:59:28;;;;;;;25.80;18.83;;;21.30;87.60;;;;;;5000481;28;20529;-85
2021/06/20 05:01:53;;;;;;;24.10;19.42;;;21.50;87.10;;;;;;4998789;28;20128;-85
2021/06/20 05:04:19;;;;;;;23.75;20.20;;;21.70;86.00;;;;;;5016213;28;20100;-84
2021/06/20 05:06:45;;;;;;;24.13;19.00;;;21.70;85.90;;;;;;5015748;28;20113;-84
2021/06/20 05:09:10;;;;;;;25.65;21.10;;;21.70;85.90;;;;;;5032782;28;20455;-84
2021/06/20 05:11:36;;;;;;;28.92;21.38;;;21.50;85.90;;;;;;5033427;28;20039;-83
2021/06/20 05:14:02;;;;;;;25.23;19.45;;;21.50;85.90;;;;;;4982794;28;20022;-83
2021/06/20 05:16:27;;;;;;;20.42;17.98;;;21.40;85.90;;;;;;5015308;28;20382;-83
2021/06/20 05:18:53;;;;;;;24.40;19.65;;;21.40;86.00;;;;;;4999115;28;20399;-86
2021/06/20 05:21:21;;;;;;;21.83;18.20;;;21.30;86.10;;;;;;4999026;28;20049;-83
2021/06/20 05:23:47;;;;;;;23.33;17.55;;;21.20;86.40;;;;;;5015285;28;20053;-83
2021/06/20 05:26:13;;;;;;;25.02;18.70;;;21.20;86.60;;;;;;5014792;28;20353;-82
2021/06/20 05:28:39;;;;;;;23.25;17.73;;;21.30;86.60;;;;;;5015299;28;20061;-83
2021/06/20 05:31:05;;;;;;;17.63;14.23;;;21.20;86.50;;;;;;5032514;28;20049;-84
2021/06/20 05:33:31;;;;;;;19.23;16.63;;;21.30;86.40;;;;;;5024112;28;20044;-83
2021/06/20 05:35:56;;;;;;;23.40;18.42;;;21.30;86.30;;;;;;5052027;28;20045;-85
2021/06/20 05:38:22;;;;;;;18.23;15.63;;;21.30;86.30;;;;;;5015095;28;20033;-84
2021/06/20 05:40:48;;;;;;;21.40;14.50;;;21.30;86.20;;;;;;5015480;28;20025;-83
2021/06/20 05:43:13;;;;;;;18.50;15.90;;;21.30;86.00;;;;;;4999854;28;20060;-83
2021/06/20 05:45:39;;;;;;;19.90;15.75;;;21.30;85.60;;;;;;5032078;28;20029;-83
2021/06/20 05:48:05;;;;;;;18.88;14.10;;;21.30;85.60;;;;;;5032729;28;20029;-82
2021/06/20 05:50:31;;;;;;;17.90;15.00;;;21.40;85.50;;;;;;5031109;28;20120;-83
2021/06/20 05:52:57;;;;;;;15.63;12.70;;;21.40;85.00;;;;;;5030639;28;20117;-85
2021/06/20 05:55:23;;;;;;;15.80;13.20;;;21.60;84.70;;;;;;5032075;28;20120;-83
2021/06/20 05:57:49;;;;;;;12.50;11.20;;;21.70;84.20;;;;;;5016603;28;20109;-82
2021/06/20 06:00:15;;;;;;;13.85;12.45;;;21.80;83.50;;;;;;5014255;28;20030;-79
2021/06/20 06:02:41;;;;;;;14.10;12.60;;;21.70;83.10;;;;;;5032573;28;20033;-78
2021/06/20 06:05:08;;;;;;;16.13;14.07;;;21.60;83.20;;;;;;5019125;28;20075;-79
2021/06/20 06:07:35;;;;;;;15.27;13.63;;;21.40;83.50;;;;;;5040266;28;20052;-80
2021/06/20 06:10:06;;;;;;;14.35;12.85;;;21.40;83.80;;;;;;5032739;28;20021;-84
2021/06/20 06:12:32;;;;;;;15.02;12.68;;;21.40;84.00;;;;;;5009258;28;20082;-78
2021/06/20 06:14:57;;;;;;;13.73;11.30;;;21.70;83.70;;;;;;5017615;28;20056;-78
2021/06/20 06:17:24;;;;;;;12.32;10.70;;;22.00;83.10;;;;;;5052133;28;20088;-82
2021/06/20 06:19:51;;;;;;;12.40;10.43;;;22.30;82.20;;;;;;5034836;28;20528;-82
2021/06/20 06:22:18;;;;;;;11.68;10.48;;;22.40;81.70;;;;;;5015880;28;20037;-83
2021/06/20 06:24:45;;;;;;;12.23;10.93;;;22.50;81.60;;;;;;5007321;28;20032;-83
2021/06/20 06:27:12;;;;;;;10.02;9.02;;;22.60;81.30;;;;;;5034341;28;20310;-83
2021/06/20 06:29:38;;;;;;;10.52;7.90;;;23.10;81.00;;;;;;5052706;28;20090;-82
2021/06/20 06:32:07;;;;;;;6.60;5.97;;;24.50;77.70;;;;;;5035667;28;20037;-88
2021/06/20 06:34:34;;;;;;;5.72;4.80;;;25.80;74.20;;;;;;5059422;28;20053;-83
2021/06/20 06:36:59;;;;;;;5.25;4.75;;;26.10;71.40;;;;;;5054400;28;20097;-83
2021/06/20 06:39:26;;;;;;;4.70;3.90;;;26.00;70.60;;;;;;5042140;28;20029;-82
2021/06/20 06:41:53;;;;;;;3.75;3.38;;;26.70;69.00;;;;;;5015322;28;20033;-81
2021/06/20 06:44:19;;;;;;;3.95;3.55;;;27.20;67.00;;;;;;5017485;28;20025;-82
2021/06/20 06:46:44;;;;;;;5.25;3.35;;;27.00;66.30;;;;;;5024816;28;20103;-84
2021/06/20 06:49:10;;;;;;;3.92;2.83;;;27.00;65.50;;;;;;5036542;28;20385;-83
2021/06/20 06:51:36;;;;;;;4.20;3.10;;;27.20;65.70;;;;;;5032601;28;20474;-84
2021/06/20 06:54:02;;;;;;;4.55;3.05;;;27.80;63.90;;;;;;5046972;28;20493;-86
2021/06/20 06:56:28;;;;;;;5.72;3.15;;;28.60;62.60;;;;;;5063866;28;20052;-85
2021/06/20 06:58:53;;;;;;;3.35;2.92;;;29.60;60.00;;;;;;5044202;28;20037;-86
2021/06/20 07:01:19;;;;;;;4.68;2.63;;;30.20;57.50;;;;;;5034596;28;20037;-86
2021/06/20 07:03:45;;;;;;;2.30;1.92;;;30.70;56.20;;;;;;5001839;28;20029;-86
2021/06/20 07:06:11;;;;;;;2.60;2.40;;;31.30;55.10;;;;;;5017420;28;20148;-86
2021/06/20 07:08:37;;;;;;;5.78;2.28;;;31.90;54.30;;;;;;5037175;28;20377;-88
2021/06/20 07:11:03;;;;;;;6.43;1.88;;;32.30;52.20;;;;;;5022860;28;20029;-93
2021/06/20 07:13:29;;;;;;;5.38;1.90;;;32.60;50.90;;;;;;5015846;28;20022;-87
2021/06/20 07:15:54;;;;;;;6.18;1.95;;;32.70;49.30;;;;;;5038278;28;20052;-88
2021/06/20 07:18:20;;;;;;;7.05;2.15;;;32.70;48.80;;;;;;5037381;28;20086;-89
2021/06/20 07:20:47;;;;;;;5.22;1.77;;;32.60;49.30;;;;;;5035030;28;20440;-87
2021/06/20 07:23:13;;;;;;;6.47;2.40;;;32.60;48.80;;;;;;5025737;28;20075;-84
2021/06/20 07:25:39;;;;;;;5.20;1.80;;;32.50;49.10;;;;;;5017970;28;20376;-86
2021/06/20 07:28:05;;;;;;;4.30;1.83;;;32.40;49.70;;;;;;5001016;28;20026;-85
2021/06/20 07:30:32;;;;;;;4.20;1.42;;;32.20;49.70;;;;;;5016670;28;20029;-85
2021/06/20 07:32:58;;;;;;;6.00;1.60;;;32.20;49.90;;;;;;5017188;28;20025;-86
2021/06/20 07:35:24;;;;;;;6.25;1.85;;;32.60;48.70;;;;;;5016201;28;20049;-83
2021/06/20 07:37:50;;;;;;;4.90;1.85;;;32.60;47.70;;;;;;5016939;28;20041;-82
2021/06/20 07:40:16;;;;;;;4.63;1.60;;;32.50;47.60;;;;;;5046616;28;20028;-83
2021/06/20 07:42:43;;;;;;;5.03;1.30;;;32.70;47.80;;;;;;5037904;28;20036;-82
2021/06/20 07:45:10;;;;;;;3.60;1.45;;;32.90;47.00;;;;;;5036936;28;20025;-81
2021/06/20 07:47:36;;;;;;;4.63;1.27;;;32.90;46.00;;;;;;5052355;28;20025;-84
2021/06/20 07:50:08;;;;;;;3.45;1.40;;;33.00;46.60;;;;;;5036820;28;20189;-83
2021/06/20 07:52:33;;;;;;;3.03;1.20;;;33.20;46.00;;;;;;5016881;28;20041;-84
2021/06/20 07:54:59;;;;;;;5.07;1.20;;;33.20;46.10;;;;;;5017477;28;20279;-83
2021/06/20 07:57:25;;;;;;;5.05;1.27;;;33.00;45.80;;;;;;5000058;28;20034;-84
2021/06/20 07:59:51;;;;;;;1.95;1.13;;;32.90;45.10;;;;;;5035458;28;20025;-82
2021/06/20 08:02:17;;;;;;;3.35;0.85;;;32.90;45.50;;;;;;5035709;28;20032;-83
2021/06/20 08:04:44;;;;;;;2.95;0.88;;;32.80;45.10;;;;;;5019056;28;20045;-83
2021/06/20 08:07:10;;;;;;;2.58;1.00;;;33.00;45.60;;;;;;5054028;28;20033;-83
2021/06/20 08:09:35;;;;;;;2.35;1.00;;;33.10;45.20;;;;;;5053650;28;20445;-83
2021/06/20 08:12:02;;;;;;;2.53;1.05;;;33.10;45.50;;;;;;5036115;28;20056;-83
2021/06/20 08:14:28;;;;;;;1.83;1.00;;;32.70;44.60;;;;;;5019071;28;20036;-84
2021/06/20 08:16:53;;;;;;;3.20;0.85;;;32.30;45.80;;;;;;5036673;28;20053;-85
2021/06/20 08:19:19;;;;;;;3.92;1.02;;;32.40;46.30;;;;;;5055150;28;20025;-85
2021/06/20 08:21:48;;;;;;;1.63;0.85;;;32.70;45.90;;;;;;5035886;28;20037;-83
2021/06/20 08:24:14;;;;;;;1.63;0.65;;;33.00;44.00;;;;;;5035873;28;20029;-84
2021/06/20 08:26:40;;;;;;;2.15;0.80;;;33.00;44.00;;;;;;5018958;28;20021;-85
2021/06/20 08:29:07;;;;;;;2.20;0.80;;;33.00;44.40;;;;;;5054069;28;20032;-83
2021/06/20 08:31:33;;;;;;;3.08;0.95;;;33.40;43.80;;;;;;5035106;28;20021;-83
2021/06/20 08:33:59;;;;;;;2.72;0.80;;;33.70;41.50;;;;;;5035771;28;20041;-84
2021/06/20 08:36:25;;;;;;;1.73;0.60;;;33.80;43.50;;;;;;5034651;28;20053;-83
2021/06/20 08:38:51;;;;;;;2.45;0.60;;;34.20;42.10;;;;;;5053672;28;20036;-84
2021/06/20 08:41:17;;;;;;;1.50;0.60;;;34.50;42.30;;;;;;5036203;28;20448;-84
2021/06/20 08:43:43;;;;;;;2.65;0.73;;;34.70;41.80;;;;;;5054678;28;20504;-85
2021/06/20 08:46:10;;;;;;;3.22;0.70;;;34.80;42.00;;;;;;5035584;28;20021;-83
2021/06/20 08:48:37;;;;;;;1.80;0.60;;;34.60;42.10;;;;;;5035200;28;20029;-83
2021/06/20 08:51:04;;;;;;;1.67;0.57;;;34.50;41.10;;;;;;5057085;28;20029;-86
2021/06/20 08:53:30;;;;;;;1.40;0.40;;;34.50;42.00;;;;;;5055827;28;20128;-85
2021/06/20 08:55:56;;;;;;;2.45;0.50;;;34.60;42.30;;;;;;5038512;28;20473;-85
2021/06/20 08:58:26;;;;;;;3.42;0.60;;;35.00;42.20;;;;;;5056600;28;20113;-85
2021/06/20 09:00:56;;;;;;;1.40;0.50;;;35.30;41.30;;;;;;5057353;28;20024;-85
2021/06/20 09:03:22;;;;;;;1.77;0.40;;;35.50;41.10;;;;;;5042221;28;20032;-85
2021/06/20 09:06:03;;;;;;;1.63;0.47;;;35.20;39.70;;;;;;5056315;28;20060;-83
2021/06/20 09:08:29;;;;;;;1.23;0.40;;;34.40;41.20;;;;;;5039248;28;20059;-85
2021/06/20 09:10:56;;;;;;;2.72;0.40;;;33.90;41.70;;;;;;5038795;28;20028;-84
2021/06/20 09:13:23;;;;;;;1.23;0.40;;;33.30;41.40;;;;;;5021068;28;20029;-85
2021/06/20 09:16:00;;;;;;;1.05;0.40;;;32.50;42.20;;;;;;5034917;28;20548;-85
2021/06/20 09:18:26;;;;;;;3.50;0.40;;;31.80;44.00;;;;;;5053259;28;20073;-88
2021/06/20 09:20:52;;;;;;;1.00;0.38;;;31.30;44.30;;;;;;5019030;28;20025;-84
2021/06/20 09:23:19;;;;;;;2.47;0.35;;;30.90;45.10;;;;;;5035438;28;20037;-86
2021/06/20 09:25:52;;;;;;;1.98;0.30;;;30.80;45.50;;;;;;5052997;28;20083;-85
2021/06/20 09:28:18;;;;;;;1.80;0.40;;;30.80;45.40;;;;;;5035352;28;20087;-84
2021/06/20 09:30:50;;;;;;;1.65;0.40;;;30.60;45.60;;;;;;5018094;28;20036;-85
2021/06/20 09:33:17;;;;;;;0.93;0.32;;;30.50;45.70;;;;;;5053099;28;20136;-84
2021/06/20 09:35:55;;;;;;;1.83;0.40;;;30.50;46.10;;;;;;5034495;28;20110;-84
2021/06/20 09:38:27;;;;;;;1.48;0.32;;;30.40;46.20;;;;;;5020793;28;20033;-84
2021/06/20 09:41:03;;;;;;;0.55;0.30;;;30.60;46.30;;;;;;5053010;28;20562;-84
2021/06/20 09:43:34;;;;;;;1.15;0.30;;;31.00;45.10;;;;;;5052700;28;20120;-89
2021/06/20 09:46:01;;;;;;;1.63;0.30;;;31.10;45.10;;;;;;5052344;28;20065;-84
2021/06/20 09:48:32;;;;;;;0.75;0.30;;;31.30;44.70;;;;;;5018749;28;20442;-85
2021/06/20 09:51:20;;;;;;;1.45;0.30;;;31.10;44.70;;;;;;5034404;28;20033;-84
2021/06/20 09:53:48;;;;;;;0.95;0.40;;;31.10;44.90;;;;;;5033032;28;20091;-83
2021/06/20 09:56:13;;;;;;;1.38;0.30;;;31.10;44.80;;;;;;5034389;28;20391;-83
2021/06/20 09:58:44;;;;;;;0.88;0.30;;;31.00;45.30;;;;;;5051360;28;20101;-83
2021/06/20 10:01:16;;;;;;;1.85;0.30;;;31.30;44.60;;;;;;5034229;28;20039;-83
2021/06/20 10:03:44;;;;;;;2.75;0.30;;;31.50;43.10;;;;;;5051492;28;20021;-83
2021/06/20 10:06:12;;;;;;;1.88;0.20;;;31.60;43.90;;;;;;5034156;28;20017;-84
2021/06/20 10:08:38;;;;;;;0.65;0.20;;;31.60;43.70;;;;;;5033263;28;20025;-86
2021/06/20 10:11:04;;;;;;;0.70;0.30;;;31.50;43.60;;;;;;5017934;28;20032;-82
2021/06/20 10:13:30;;;;;;;0.60;0.20;;;31.30;44.10;;;;;;5034307;28;20025;-84
2021/06/20 10:16:15;;;;;;;0.77;0.30;;;31.20;43.80;;;;;;5054209;28;20116;-84
2021/06/20 10:19:05;;;;;;;0.57;0.20;;;31.10;44.20;;;;;;5034825;28;20032;-83
2021/06/20 10:21:43;;;;;;;0.70;0.28;;;31.10;44.70;;;;;;5034452;28;20045;-82
2021/06/20 10:24:12;;;;;;;3.75;0.30;;;31.00;43.90;;;;;;5053017;28;20462;-82
2021/06/20 10:26:40;;;;;;;0.63;0.30;;;31.00;44.30;;;;;;5034318;28;20025;-84
2021/06/20 10:29:19;;;;;;;1.15;0.30;;;31.00;44.10;;;;;;5020972;28;20021;-83
2021/06/20 10:31:46;;;;;;;0.70;0.20;;;30.80;44.60;;;;;;5056241;28;20111;-83
2021/06/20 10:34:24;;;;;;;1.65;0.25;;;31.00;44.50;;;;;;5038825;28;20036;-84
2021/06/20 10:36:58;;;;;;;1.40;0.20;;;31.40;44.40;;;;;;5055644;28;20107;-84
2021/06/20 10:39:25;;;;;;;1.95;0.30;;;31.90;43.60;;;;;;5056648;28;20381;-83
2021/06/20 10:42:10;;;;;;;1.42;0.38;;;32.10;42.90;;;;;;5037910;28;20029;-83
2021/06/20 10:44:50;;;;;;;1.02;0.20;;;32.00;42.80;;;;;;5039376;28;20110;-82
2021/06/20 10:47:31;;;;;;;1.75;0.25;;;31.90;42.90;;;;;;5038342;28;20017;-82
2021/06/20 10:50:08;;;;;;;0.70;0.20;;;31.60;43.10;;;;;;5038655;28;20022;-87
2021/06/20 10:52:35;;;;;;;0.73;0.20;;;31.30;43.40;;;;;;5038249;28;20041;-81
2021/06/20 10:55:10;;;;;;;1.20;0.20;;;31.00;43.70;;;;;;5055342;28;20082;-81
2021/06/20 10:57:47;;;;;;;0.70;0.20;;;30.90;44.10;;;;;;5055503;28;20028;-81
2021/06/20 11:00:25;;;;;;;1.55;0.20;;;30.70;43.90;;;;;;5037859;28;20021;-80
2021/06/20 11:02:51;;;;;;;1.52;0.20;;;30.80;43.60;;;;;;5055032;28;20041;-81
2021/06/20 11:05:22;;;;;;;1.20;0.20;;;30.80;43.60;;;;;;5037981;28;20116;-80
2021/06/20 11:07:49;;;;;;;1.73;0.20;;;30.70;43.90;;;;;;5036885;28;20071;-81
2021/06/20 11:10:22;;;;;;;0.90;0.20;;;30.80;44.60;;;;;;5055442;28;20094;-81
2021/06/20 11:12:57;;;;;;;0.43;0.20;;;30.90;44.80;;;;;;5036977;28;20052;-81
2021/06/20 11:15:27;;;;;;;1.02;0.40;;;30.80;43.90;;;;;;5055608;28;20055;-81
2021/06/20 11:18:07;;;;;;;0.80;0.20;;;30.70;43.80;;;;;;5054802;28;20027;-81
2021/06/20 11:20:33;;;;;;;0.40;0.20;;;30.50;44.30;;;;;;5055292;28;20025;-81
2021/06/20 11:23:00;;;;;;;0.60;0.30;;;30.20;45.10;;;;;;5054755;28;20037;-81
2021/06/20 11:25:26;;;;;;;1.60;0.30;;;30.10;45.80;;;;;;5020950;28;20491;-80
2021/06/20 11:27:52;;;;;;;1.13;0.20;;;29.90;45.60;;;;;;5036682;28;20033;-80
2021/06/20 11:30:19;;;;;;;2.03;0.30;;;29.70;45.90;;;;;;5036807;28;20090;-82
2021/06/20 11:32:45;;;;;;;0.85;0.20;;;29.60;45.80;;;;;;5020245;28;20048;-85
2021/06/20 11:35:13;;;;;;;0.90;0.30;;;29.50;46.30;;;;;;5054407;28;20049;-81
2021/06/20 11:37:45;;;;;;;2.40;0.32;;;29.50;46.10;;;;;;5054267;28;20025;-81
2021/06/20 11:40:17;;;;;;;0.60;0.20;;;29.60;46.10;;;;;;5035346;28;20029;-81
2021/06/20 11:42:49;;;;;;;2.75;0.28;;;29.70;45.60;;;;;;5054686;28;20099;-81
2021/06/20 11:45:17;;;;;;;1.05;0.20;;;29.70;45.70;;;;;;5054889;28;20032;-82
2021/06/20 11:47:45;;;;;;;1.42;0.20;;;29.70;45.80;;;;;;5036593;28;20089;-80
2021/06/20 11:50:18;;;;;;;0.85;0.20;;;29.60;46.70;;;;;;5054249;28;20132;-81
2021/06/20 11:53:03;;;;;;;1.40;0.43;;;29.60;46.10;;;;;;5054811;28;20025;-81
2021/06/20 11:55:32;;;;;;;1.23;0.20;;;29.60;46.10;;;;;;5055042;28;20017;-82
2021/06/20 11:58:15;;;;;;;0.40;0.20;;;29.80;46.40;;;;;;5035690;28;20018;-81
2021/06/20 12:00:43;;;;;;;1.80;0.28;;;30.00;45.60;;;;;;5055542;28;20049;-80
2021/06/20 12:03:17;;;;;;;1.63;0.22;;;30.00;45.20;;;;;;5055171;28;20029;-81
2021/06/20 12:05:49;;;;;;;1.60;0.30;;;30.20;45.30;;;;;;5036894;28;20025;-81
2021/06/20 12:08:15;;;;;;;1.47;0.20;;;30.40;45.50;;;;;;5054417;28;20156;-81
2021/06/20 12:10:44;;;;;;;2.03;0.35;;;30.60;45.90;;;;;;5054290;28;20473;-81
2021/06/20 12:13:10;;;;;;;0.80;0.20;;;30.80;44.90;;;;;;5053969;28;20024;-80
2021/06/20 12:15:39;;;;;;;0.98;0.20;;;30.80;44.50;;;;;;5020047;28;20530;-80
2021/06/20 12:18:06;;;;;;;1.48;0.30;;;31.00;44.70;;;;;;5053860;28;20036;-81
2021/06/20 12:20:38;;;;;;;0.25;0.10;;;31.10;44.20;;;;;;5054340;28;20025;-81
2021/06/20 12:23:05;;;;;;;;;;;31.30;43.80;;;;;;5036304;28;20460;-82
2021/06/20 12:25:45;;;;;;;1.70;0.30;;;31.40;43.50;;;;;;5036363;28;20272;-81
2021/06/20 12:28:12;;;;;;;1.42;0.30;;;31.20;43.20;;;;;;5035271;28;20025;-80
2021/06/20 12:30:41;;;;;;;0.85;0.20;;;31.20;44.60;;;;;;5036587;28;20037;-80
2021/06/20 12:33:18;;;;;;;1.60;0.20;;;31.40;44.00;;;;;;5039257;28;20025;-81
2021/06/20 12:35:46;;;;;;;0.65;0.20;;;31.40;43.70;;;;;;5036385;28;20045;-81
2021/06/20 12:38:23;;;;;;;0.68;0.30;;;31.30;43.10;;;;;;5053731;28;20037;-80